createdAt,value
2022-12-23T01:43:50.118Z,41.80
2022-12-23T01:46:17.249Z,40.00
2022-12-23T01:48:45.363Z,38.00
2022-12-23T01:51:14.912Z,36.10
2022-12-23T01:53:47.089Z,35.20
2022-12-23T01:56:17.044Z,33.40
2022-12-23T01:58:46.582Z,31.90
2022-12-23T02:01:32.253Z,34.40
2022-12-23T02:04:00.934Z,37.20
2022-12-23T02:06:48.118Z,32.40
2022-12-23T02:09:26.179Z,35.80
2022-12-23T02:12:21.589Z,33.40
2022-12-23T02:15:32.045Z,32.80
2022-12-23T02:18:15.939Z,30.00
2022-12-23T02:21:11.269Z,34.70
2022-12-23T02:23:53.173Z,29.10
2022-12-23T02:27:11.337Z,34.40
2022-12-23T02:29:56.827Z,34.50
2022-12-23T02:32:29.078Z,34.10
2022-12-23T02:34:56.967Z,34.70
2022-12-23T02:37:54.364Z,31.30
2022-12-23T02:40:30.025Z,32.10
2022-12-23T02:43:01.459Z,34.50
2022-12-23T02:45:28.146Z,36.20
2022-12-23T02:47:56.657Z,38.40
2022-12-23T02:50:31.938Z,38.30
2022-12-23T02:52:59.956Z,40.60
2022-12-23T02:55:29.062Z,35.60
2022-12-23T02:57:55.833Z,37.30
2022-12-23T03:00:23.218Z,38.90
2022-12-23T03:02:50.054Z,34.50
2022-12-23T03:07:50.735Z,35.30
2022-12-23T03:10:36.244Z,40.50
2022-12-23T03:13:15.243Z,40.70
2022-12-23T03:15:56.409Z,45.00
2022-12-23T03:18:29.373Z,41.60
2022-12-23T03:21:14.395Z,38.70
2022-12-23T03:23:55.903Z,37.40
2022-12-23T03:26:32.963Z,39.40
2022-12-23T03:29:13.819Z,37.00
2022-12-23T03:31:40.631Z,38.40
2022-12-23T03:36:42.125Z,42.00
2022-12-23T03:39:10.843Z,41.50
2022-12-23T03:41:40.999Z,39.90
2022-12-23T03:44:13.687Z,38.70
2022-12-23T03:46:42.943Z,38.30
2022-12-23T03:49:13.517Z,38.60
2022-12-23T03:51:53.131Z,38.70
2022-12-23T03:54:22.649Z,42.30
2022-12-23T03:57:01.623Z,40.20
2022-12-23T03:59:32.925Z,42.30
2022-12-23T04:02:16.595Z,38.90
2022-12-23T04:04:52.132Z,38.30
2022-12-23T04:07:30.854Z,44.00
2022-12-23T04:09:57.573Z,42.60
2022-12-23T04:12:24.705Z,38.00
2022-12-23T04:14:51.377Z,41.40
2022-12-23T04:17:18.109Z,40.40
2022-12-23T04:19:47.786Z,43.50
2022-12-23T04:22:15.134Z,57.80
2022-12-23T04:24:41.941Z,45.20
2022-12-23T04:29:36.386Z,44.20
2022-12-23T04:32:03.103Z,47.80
2022-12-23T04:34:29.829Z,45.70
2022-12-23T04:36:56.567Z,45.70
2022-12-23T04:39:23.317Z,46.00
2022-12-23T04:41:50.020Z,42.80
2022-12-23T04:44:16.736Z,49.60
2022-12-23T04:46:43.553Z,37.80
2022-12-23T04:51:36.873Z,37.90
2022-12-23T04:54:03.746Z,45.50
2022-12-23T04:58:57.080Z,46.00
2022-12-23T05:01:23.809Z,49.80
2022-12-23T05:03:50.505Z,46.30
2022-12-23T05:06:17.185Z,47.90
2022-12-23T05:08:43.873Z,55.30
2022-12-23T19:59:54.409Z,84.70
2022-12-23T20:27:38.101Z,84.50
2022-12-23T20:30:05.606Z,83.30
2022-12-23T20:32:32.380Z,85.00
2022-12-23T20:34:59.145Z,78.70
2022-12-23T20:39:53.624Z,84.90
2022-12-23T21:00:46.361Z,90.60
2022-12-23T21:05:39.980Z,82.00
2022-12-23T21:10:35.726Z,75.00
2022-12-23T21:13:03.553Z,77.50
2022-12-23T21:15:33.340Z,80.80
2022-12-23T21:18:00.157Z,78.30
2022-12-23T21:22:53.608Z,73.60
2022-12-23T21:25:20.361Z,75.10
2022-12-23T21:27:47.110Z,80.20
2022-12-23T21:30:14.082Z,85.20
2022-12-23T21:32:40.881Z,87.00
2022-12-23T21:37:34.466Z,79.60
2022-12-23T21:40:01.270Z,78.20
2022-12-23T21:44:54.646Z,74.30
2022-12-23T21:47:21.375Z,77.00
2022-12-23T21:49:48.124Z,74.10
2022-12-23T21:52:14.827Z,77.90
2022-12-23T21:54:41.575Z,83.80
2022-12-23T21:57:08.291Z,82.50
2022-12-23T21:59:35.625Z,94.40
2022-12-23T22:02:02.600Z,94.50
2022-12-23T22:06:56.119Z,78.20
2022-12-23T22:09:22.806Z,80.20
2022-12-23T22:11:49.564Z,77.40
2022-12-23T22:14:17.716Z,73.10
2022-12-23T22:16:44.534Z,77.60
2022-12-23T22:21:39.615Z,75.90
2022-12-23T22:24:06.728Z,86.30
2022-12-23T22:26:33.521Z,81.50
2022-12-23T22:29:01.654Z,71.30
2022-12-23T22:31:38.542Z,74.10
2022-12-23T22:34:05.431Z,70.80
2022-12-23T22:38:59.821Z,75.90
2022-12-23T22:41:27.966Z,73.80
2022-12-23T22:43:55.069Z,69.70
2022-12-23T22:46:22.093Z,72.50
2022-12-23T22:48:48.914Z,76.30
2022-12-23T22:51:17.422Z,75.00
2022-12-23T22:53:44.174Z,75.50
2022-12-23T22:56:12.086Z,75.30
2022-12-23T22:58:38.907Z,75.90
2022-12-23T23:03:32.588Z,68.40
2022-12-23T23:08:33.988Z,72.40
2022-12-23T23:11:01.876Z,66.40
2022-12-23T23:13:30.307Z,68.80
2022-12-23T23:15:57.500Z,67.60
2022-12-23T23:18:24.466Z,71.80
2022-12-23T23:20:51.173Z,74.00
2022-12-23T23:23:17.841Z,78.30
2022-12-23T23:25:45.117Z,87.40
2022-12-23T23:28:11.891Z,86.20
2022-12-23T23:30:39.074Z,75.30
2022-12-23T23:33:06.724Z,72.90
2022-12-23T23:35:33.528Z,83.70
2022-12-23T23:38:00.219Z,78.50
2022-12-23T23:40:27.203Z,79.90
2022-12-23T23:42:54.132Z,77.40
2022-12-23T23:45:20.810Z,82.70
2022-12-23T23:47:47.483Z,75.10
2022-12-23T23:50:14.145Z,81.00
2022-12-23T23:52:40.839Z,89.70
2022-12-23T23:55:08.073Z,90.30
2022-12-23T23:57:34.792Z,87.30
